sensor_id;sensor_type;location;lat;lon;timestamp;P1;durP1;ratioP1;P2;durP2;ratioP2
14933;SDS011;7560;51.364;12.384;2023-04-25T00:02:08;5.90;;;4.75;;
14933;SDS011;7560;51.364;12.384;2023-04-25T00:07:10;5.95;;;4.28;;
14933;SDS011;7560;51.364;12.384;2023-04-25T00:12:12;5.60;;;4.32;;
14933;SDS011;7560;51.364;12.384;2023-04-25T00:17:14;6.78;;;4.13;;
14933;SDS011;7560;51.364;12.384;2023-04-25T00:22:16;7.38;;;4.18;;
14933;SDS011;7560;51.364;12.384;2023-04-25T00:27:18;6.60;;;3.95;;
14933;SDS011;7560;51.364;12.384;2023-04-25T00:32:20;8.25;;;4.90;;
14933;SDS011;7560;51.364;12.384;2023-04-25T00:37:22;6.88;;;4.22;;
14933;SDS011;7560;51.364;12.384;2023-04-25T00:42:24;5.20;;;4.20;;
14933;SDS011;7560;51.364;12.384;2023-04-25T00:47:26;5.95;;;4.55;;
14933;SDS011;7560;51.364;12.384;2023-04-25T00:52:29;7.43;;;4.35;;
14933;SDS011;7560;51.364;12.384;2023-04-25T00:57:31;7.57;;;5.07;;
14933;SDS011;7560;51.364;12.384;2023-04-25T01:02:33;8.27;;;5.03;;
14933;SDS011;7560;51.364;12.384;2023-04-25T01:07:36;8.45;;;5.20;;
14933;SDS011;7560;51.364;12.384;2023-04-25T01:12:38;7.32;;;5.50;;
14933;SDS011;7560;51.364;12.384;2023-04-25T01:17:41;6.95;;;5.00;;
14933;SDS011;7560;51.364;12.384;2023-04-25T01:22:44;8.80;;;5.22;;
14933;SDS011;7560;51.364;12.384;2023-04-25T01:27:47;8.98;;;5.07;;
14933;SDS011;7560;51.364;12.384;2023-04-25T01:32:48;6.90;;;5.30;;
14933;SDS011;7560;51.364;12.384;2023-04-25T01:37:51;9.38;;;5.50;;
14933;SDS011;7560;51.364;12.384;2023-04-25T01:42:53;6.88;;;5.00;;
14933;SDS011;7560;51.364;12.384;2023-04-25T01:47:55;8.50;;;5.43;;
14933;SDS011;7560;51.364;12.384;2023-04-25T01:53:00;8.73;;;5.18;;
14933;SDS011;7560;51.364;12.384;2023-04-25T01:58:03;7.78;;;4.60;;
14933;SDS011;7560;51.364;12.384;2023-04-25T02:03:10;6.28;;;4.57;;
14933;SDS011;7560;51.364;12.384;2023-04-25T02:08:12;8.05;;;4.95;;
14933;SDS011;7560;51.364;12.384;2023-04-25T02:13:14;12.07;;;5.47;;
14933;SDS011;7560;51.364;12.384;2023-04-25T02:18:15;8.38;;;5.05;;
14933;SDS011;7560;51.364;12.384;2023-04-25T02:23:18;9.77;;;5.90;;
14933;SDS011;7560;51.364;12.384;2023-04-25T02:28:20;11.15;;;6.80;;
14933;SDS011;7560;51.364;12.384;2023-04-25T02:33:22;9.90;;;6.45;;
14933;SDS011;7560;51.364;12.384;2023-04-25T02:38:24;10.27;;;6.25;;
14933;SDS011;7560;51.364;12.384;2023-04-25T02:43:26;11.30;;;6.57;;
14933;SDS011;7560;51.364;12.384;2023-04-25T02:48:28;9.20;;;6.25;;
14933;SDS011;7560;51.364;12.384;2023-04-25T02:53:30;10.50;;;6.30;;
14933;SDS011;7560;51.364;12.384;2023-04-25T02:58:32;8.52;;;5.80;;
14933;SDS011;7560;51.364;12.384;2023-04-25T03:03:34;10.82;;;6.00;;
14933;SDS011;7560;51.364;12.384;2023-04-25T03:08:35;10.60;;;5.60;;
14933;SDS011;7560;51.364;12.384;2023-04-25T03:13:37;9.43;;;5.85;;
14933;SDS011;7560;51.364;12.384;2023-04-25T03:18:39;9.32;;;6.07;;
14933;SDS011;7560;51.364;12.384;2023-04-25T03:23:41;11.05;;;6.00;;
14933;SDS011;7560;51.364;12.384;2023-04-25T03:28:43;11.50;;;6.03;;
14933;SDS011;7560;51.364;12.384;2023-04-25T03:33:44;10.80;;;6.10;;
14933;SDS011;7560;51.364;12.384;2023-04-25T03:38:46;10.15;;;5.53;;
14933;SDS011;7560;51.364;12.384;2023-04-25T03:43:49;10.27;;;6.35;;
14933;SDS011;7560;51.364;12.384;2023-04-25T03:48:51;9.88;;;6.13;;
14933;SDS011;7560;51.364;12.384;2023-04-25T03:53:53;9.20;;;5.97;;
14933;SDS011;7560;51.364;12.384;2023-04-25T03:58:56;8.30;;;5.68;;
14933;SDS011;7560;51.364;12.384;2023-04-25T04:03:58;10.90;;;5.75;;
14933;SDS011;7560;51.364;12.384;2023-04-25T04:09:00;9.60;;;5.88;;
14933;SDS011;7560;51.364;12.384;2023-04-25T04:14:02;9.05;;;5.40;;
14933;SDS011;7560;51.364;12.384;2023-04-25T04:19:04;11.45;;;5.90;;
14933;SDS011;7560;51.364;12.384;2023-04-25T04:24:06;10.55;;;5.72;;
14933;SDS011;7560;51.364;12.384;2023-04-25T04:29:08;10.05;;;5.43;;
14933;SDS011;7560;51.364;12.384;2023-04-25T04:34:10;9.40;;;5.43;;
14933;SDS011;7560;51.364;12.384;2023-04-25T04:39:12;10.32;;;5.63;;
14933;SDS011;7560;51.364;12.384;2023-04-25T04:44:14;8.80;;;5.07;;
14933;SDS011;7560;51.364;12.384;2023-04-25T04:49:16;10.00;;;5.18;;
14933;SDS011;7560;51.364;12.384;2023-04-25T04:54:18;10.27;;;5.70;;
14933;SDS011;7560;51.364;12.384;2023-04-25T04:59:20;11.15;;;5.70;;
14933;SDS011;7560;51.364;12.384;2023-04-25T05:04:23;12.23;;;6.40;;
14933;SDS011;7560;51.364;12.384;2023-04-25T05:09:27;9.30;;;5.65;;
14933;SDS011;7560;51.364;12.384;2023-04-25T05:14:28;11.98;;;5.63;;
14933;SDS011;7560;51.364;12.384;2023-04-25T05:19:32;12.38;;;6.40;;
14933;SDS011;7560;51.364;12.384;2023-04-25T05:24:34;10.13;;;6.28;;
14933;SDS011;7560;51.364;12.384;2023-04-25T05:29:35;11.25;;;6.22;;
14933;SDS011;7560;51.364;12.384;2023-04-25T05:34:37;8.95;;;5.65;;
14933;SDS011;7560;51.364;12.384;2023-04-25T05:39:40;10.93;;;6.03;;
14933;SDS011;7560;51.364;12.384;2023-04-25T05:44:42;12.32;;;6.90;;
14933;SDS011;7560;51.364;12.384;2023-04-25T05:49:44;11.90;;;6.93;;
14933;SDS011;7560;51.364;12.384;2023-04-25T05:54:45;10.50;;;6.40;;
14933;SDS011;7560;51.364;12.384;2023-04-25T05:59:47;9.82;;;5.68;;
14933;SDS011;7560;51.364;12.384;2023-04-25T06:04:49;15.48;;;6.47;;
14933;SDS011;7560;51.364;12.384;2023-04-25T06:09:52;10.30;;;5.93;;
14933;SDS011;7560;51.364;12.384;2023-04-25T06:14:54;11.57;;;6.07;;
14933;SDS011;7560;51.364;12.384;2023-04-25T06:19:56;8.85;;;6.05;;
14933;SDS011;7560;51.364;12.384;2023-04-25T06:24:58;15.52;;;6.40;;
14933;SDS011;7560;51.364;12.384;2023-04-25T06:30:01;11.40;;;6.10;;
14933;SDS011;7560;51.364;12.384;2023-04-25T06:35:03;12.50;;;5.90;;
14933;SDS011;7560;51.364;12.384;2023-04-25T06:40:05;10.60;;;5.78;;
14933;SDS011;7560;51.364;12.384;2023-04-25T06:45:07;9.05;;;4.95;;
14933;SDS011;7560;51.364;12.384;2023-04-25T06:50:09;8.32;;;5.45;;
14933;SDS011;7560;51.364;12.384;2023-04-25T06:55:12;9.40;;;5.25;;
14933;SDS011;7560;51.364;12.384;2023-04-25T07:00:13;9.60;;;4.78;;
14933;SDS011;7560;51.364;12.384;2023-04-25T07:05:16;8.65;;;5.03;;
14933;SDS011;7560;51.364;12.384;2023-04-25T07:10:19;7.78;;;4.82;;
14933;SDS011;7560;51.364;12.384;2023-04-25T07:15:22;8.35;;;4.90;;
14933;SDS011;7560;51.364;12.384;2023-04-25T07:20:24;9.55;;;4.60;;
14933;SDS011;7560;51.364;12.384;2023-04-25T07:25:26;8.55;;;5.10;;
14933;SDS011;7560;51.364;12.384;2023-04-25T07:30:27;10.60;;;5.57;;
14933;SDS011;7560;51.364;12.384;2023-04-25T07:35:30;8.68;;;5.78;;
14933;SDS011;7560;51.364;12.384;2023-04-25T07:40:33;10.50;;;5.38;;
14933;SDS011;7560;51.364;12.384;2023-04-25T07:45:36;8.95;;;5.32;;
14933;SDS011;7560;51.364;12.384;2023-04-25T07:50:38;13.00;;;5.97;;
14933;SDS011;7560;51.364;12.384;2023-04-25T07:55:41;11.18;;;5.68;;
14933;SDS011;7560;51.364;12.384;2023-04-25T08:00:43;8.57;;;4.78;;
14933;SDS011;7560;51.364;12.384;2023-04-25T08:05:45;10.35;;;3.10;;
14933;SDS011;7560;51.364;12.384;2023-04-25T08:10:47;5.43;;;2.13;;
14933;SDS011;7560;51.364;12.384;2023-04-25T08:15:49;9.43;;;2.00;;
14933;SDS011;7560;51.364;12.384;2023-04-25T08:20:51;5.30;;;2.05;;
14933;SDS011;7560;51.364;12.384;2023-04-25T08:25:53;4.47;;;2.05;;
14933;SDS011;7560;51.364;12.384;2023-04-25T08:30:54;4.85;;;2.17;;
14933;SDS011;7560;51.364;12.384;2023-04-25T08:35:56;7.53;;;2.40;;
14933;SDS011;7560;51.364;12.384;2023-04-25T08:40:59;6.72;;;2.40;;
14933;SDS011;7560;51.364;12.384;2023-04-25T08:46:02;9.07;;;2.83;;
14933;SDS011;7560;51.364;12.384;2023-04-25T08:51:04;6.85;;;2.25;;
14933;SDS011;7560;51.364;12.384;2023-04-25T08:56:17;5.43;;;2.53;;
14933;SDS011;7560;51.364;12.384;2023-04-25T09:01:19;8.73;;;2.45;;
14933;SDS011;7560;51.364;12.384;2023-04-25T09:06:21;7.35;;;2.60;;
14933;SDS011;7560;51.364;12.384;2023-04-25T09:11:24;8.75;;;3.10;;
14933;SDS011;7560;51.364;12.384;2023-04-25T09:16:27;9.27;;;3.10;;
14933;SDS011;7560;51.364;12.384;2023-04-25T09:21:29;8.85;;;2.70;;
14933;SDS011;7560;51.364;12.384;2023-04-25T09:26:32;7.60;;;2.75;;
14933;SDS011;7560;51.364;12.384;2023-04-25T09:31:33;11.20;;;3.22;;
14933;SDS011;7560;51.364;12.384;2023-04-25T09:36:35;12.13;;;2.70;;
14933;SDS011;7560;51.364;12.384;2023-04-25T09:41:37;9.57;;;3.38;;
14933;SDS011;7560;51.364;12.384;2023-04-25T09:46:40;6.45;;;2.80;;
14933;SDS011;7560;51.364;12.384;2023-04-25T09:51:43;8.73;;;2.72;;
14933;SDS011;7560;51.364;12.384;2023-04-25T09:56:58;11.48;;;3.67;;
14933;SDS011;7560;51.364;12.384;2023-04-25T10:02:12;10.52;;;3.33;;
14933;SDS011;7560;51.364;12.384;2023-04-25T10:07:16;12.38;;;4.10;;
14933;SDS011;7560;51.364;12.384;2023-04-25T10:12:19;13.80;;;4.75;;
14933;SDS011;7560;51.364;12.384;2023-04-25T10:17:21;10.65;;;4.25;;
14933;SDS011;7560;51.364;12.384;2023-04-25T10:22:26;9.63;;;4.22;;
14933;SDS011;7560;51.364;12.384;2023-04-25T10:27:34;8.45;;;4.88;;
14933;SDS011;7560;51.364;12.384;2023-04-25T10:32:36;10.48;;;4.55;;
14933;SDS011;7560;51.364;12.384;2023-04-25T10:37:38;10.98;;;5.07;;
14933;SDS011;7560;51.364;12.384;2023-04-25T10:43:32;10.85;;;5.38;;
14933;SDS011;7560;51.364;12.384;2023-04-25T10:48:45;10.85;;;4.97;;
14933;SDS011;7560;51.364;12.384;2023-04-25T10:59:08;12.70;;;5.10;;
14933;SDS011;7560;51.364;12.384;2023-04-25T11:09:24;11.45;;;4.78;;
14933;SDS011;7560;51.364;12.384;2023-04-25T11:14:26;13.32;;;4.75;;
14933;SDS011;7560;51.364;12.384;2023-04-25T11:19:28;9.45;;;5.32;;
14933;SDS011;7560;51.364;12.384;2023-04-25T11:24:32;13.27;;;5.55;;
14933;SDS011;7560;51.364;12.384;2023-04-25T11:29:35;11.50;;;4.20;;
14933;SDS011;7560;51.364;12.384;2023-04-25T11:34:38;10.98;;;4.13;;
14933;SDS011;7560;51.364;12.384;2023-04-25T11:39:44;11.52;;;4.35;;
14933;SDS011;7560;51.364;12.384;2023-04-25T11:44:47;6.18;;;3.42;;
14933;SDS011;7560;51.364;12.384;2023-04-25T11:49:50;8.13;;;3.30;;
14933;SDS011;7560;51.364;12.384;2023-04-25T11:54:55;10.85;;;2.90;;
14933;SDS011;7560;51.364;12.384;2023-04-25T12:00:08;11.20;;;2.67;;
14933;SDS011;7560;51.364;12.384;2023-04-25T12:05:19;12.60;;;2.55;;
14933;SDS011;7560;51.364;12.384;2023-04-25T12:10:33;7.95;;;2.25;;
14933;SDS011;7560;51.364;12.384;2023-04-25T12:15:42;5.90;;;2.30;;
14933;SDS011;7560;51.364;12.384;2023-04-25T12:20:43;8.18;;;2.30;;
14933;SDS011;7560;51.364;12.384;2023-04-25T12:25:45;7.82;;;2.28;;
14933;SDS011;7560;51.364;12.384;2023-04-25T12:31:04;8.93;;;2.65;;
14933;SDS011;7560;51.364;12.384;2023-04-25T12:36:07;6.57;;;2.20;;
14933;SDS011;7560;51.364;12.384;2023-04-25T12:41:10;6.82;;;2.30;;
14933;SDS011;7560;51.364;12.384;2023-04-25T12:46:12;8.48;;;2.15;;
14933;SDS011;7560;51.364;12.384;2023-04-25T12:51:14;6.22;;;2.10;;
14933;SDS011;7560;51.364;12.384;2023-04-25T12:56:16;4.97;;;1.45;;
14933;SDS011;7560;51.364;12.384;2023-04-25T13:01:18;4.22;;;1.70;;
14933;SDS011;7560;51.364;12.384;2023-04-25T13:06:20;3.08;;;1.23;;
14933;SDS011;7560;51.364;12.384;2023-04-25T13:11:22;9.93;;;2.30;;
14933;SDS011;7560;51.364;12.384;2023-04-25T13:16:24;5.75;;;1.70;;
14933;SDS011;7560;51.364;12.384;2023-04-25T13:21:29;7.93;;;2.33;;
14933;SDS011;7560;51.364;12.384;2023-04-25T13:26:33;5.45;;;1.33;;
14933;SDS011;7560;51.364;12.384;2023-04-25T13:31:35;8.32;;;3.50;;
14933;SDS011;7560;51.364;12.384;2023-04-25T13:36:38;4.38;;;1.50;;
14933;SDS011;7560;51.364;12.384;2023-04-25T13:41:40;7.53;;;2.33;;
14933;SDS011;7560;51.364;12.384;2023-04-25T13:46:42;5.15;;;1.90;;
14933;SDS011;7560;51.364;12.384;2023-04-25T13:51:47;4.15;;;1.80;;
14933;SDS011;7560;51.364;12.384;2023-04-25T13:56:49;6.35;;;1.55;;
14933;SDS011;7560;51.364;12.384;2023-04-25T14:01:53;3.40;;;1.67;;
14933;SDS011;7560;51.364;12.384;2023-04-25T14:06:55;4.35;;;1.60;;
14933;SDS011;7560;51.364;12.384;2023-04-25T14:11:59;4.32;;;1.60;;
14933;SDS011;7560;51.364;12.384;2023-04-25T14:17:01;3.35;;;1.52;;
14933;SDS011;7560;51.364;12.384;2023-04-25T14:22:07;3.95;;;1.50;;
14933;SDS011;7560;51.364;12.384;2023-04-25T14:27:09;3.15;;;1.48;;
14933;SDS011;7560;51.364;12.384;2023-04-25T14:32:11;7.05;;;1.77;;
14933;SDS011;7560;51.364;12.384;2023-04-25T14:37:13;6.68;;;1.70;;
14933;SDS011;7560;51.364;12.384;2023-04-25T14:42:16;3.95;;;1.60;;
14933;SDS011;7560;51.364;12.384;2023-04-25T14:47:17;3.25;;;1.50;;
14933;SDS011;7560;51.364;12.384;2023-04-25T14:52:22;3.92;;;1.33;;
14933;SDS011;7560;51.364;12.384;2023-04-25T14:57:24;3.40;;;1.50;;
14933;SDS011;7560;51.364;12.384;2023-04-25T15:02:26;4.78;;;1.70;;
14933;SDS011;7560;51.364;12.384;2023-04-25T15:07:29;4.10;;;1.77;;
14933;SDS011;7560;51.364;12.384;2023-04-25T15:12:30;4.13;;;1.70;;
14933;SDS011;7560;51.364;12.384;2023-04-25T15:17:32;6.57;;;1.80;;
14933;SDS011;7560;51.364;12.384;2023-04-25T15:22:35;5.75;;;2.10;;
14933;SDS011;7560;51.364;12.384;2023-04-25T15:27:40;3.25;;;1.75;;
14933;SDS011;7560;51.364;12.384;2023-04-25T15:32:45;4.80;;;1.98;;
14933;SDS011;7560;51.364;12.384;2023-04-25T15:37:47;3.78;;;1.90;;
14933;SDS011;7560;51.364;12.384;2023-04-25T15:42:49;4.68;;;1.80;;
14933;SDS011;7560;51.364;12.384;2023-04-25T15:47:55;4.35;;;1.75;;
14933;SDS011;7560;51.364;12.384;2023-04-25T15:52:57;5.90;;;1.90;;
14933;SDS011;7560;51.364;12.384;2023-04-25T15:57:59;3.67;;;1.50;;
14933;SDS011;7560;51.364;12.384;2023-04-25T16:03:01;6.97;;;1.67;;
14933;SDS011;7560;51.364;12.384;2023-04-25T16:08:04;4.03;;;1.67;;
14933;SDS011;7560;51.364;12.384;2023-04-25T16:13:05;5.53;;;1.40;;
14933;SDS011;7560;51.364;12.384;2023-04-25T16:18:07;2.97;;;1.60;;
14933;SDS011;7560;51.364;12.384;2023-04-25T16:23:09;4.00;;;1.88;;
14933;SDS011;7560;51.364;12.384;2023-04-25T16:28:11;4.88;;;1.67;;
14933;SDS011;7560;51.364;12.384;2023-04-25T16:33:14;4.55;;;1.52;;
14933;SDS011;7560;51.364;12.384;2023-04-25T16:38:17;4.93;;;1.35;;
14933;SDS011;7560;51.364;12.384;2023-04-25T16:43:19;4.15;;;1.90;;
14933;SDS011;7560;51.364;12.384;2023-04-25T16:48:21;2.83;;;1.48;;
14933;SDS011;7560;51.364;12.384;2023-04-25T16:53:24;4.55;;;1.63;;
14933;SDS011;7560;51.364;12.384;2023-04-25T16:58:26;2.50;;;1.67;;
14933;SDS011;7560;51.364;12.384;2023-04-25T17:03:29;4.38;;;1.35;;
14933;SDS011;7560;51.364;12.384;2023-04-25T17:08:35;2.65;;;1.40;;
14933;SDS011;7560;51.364;12.384;2023-04-25T17:13:37;4.07;;;1.63;;
14933;SDS011;7560;51.364;12.384;2023-04-25T17:18:39;4.35;;;1.60;;
14933;SDS011;7560;51.364;12.384;2023-04-25T17:23:42;3.72;;;1.33;;
14933;SDS011;7560;51.364;12.384;2023-04-25T17:28:45;4.68;;;1.60;;
14933;SDS011;7560;51.364;12.384;2023-04-25T17:33:50;4.28;;;1.80;;
14933;SDS011;7560;51.364;12.384;2023-04-25T17:38:51;4.90;;;1.40;;
14933;SDS011;7560;51.364;12.384;2023-04-25T17:43:53;4.53;;;1.80;;
14933;SDS011;7560;51.364;12.384;2023-04-25T17:48:55;4.32;;;1.80;;
14933;SDS011;7560;51.364;12.384;2023-04-25T17:54:01;5.03;;;1.50;;
14933;SDS011;7560;51.364;12.384;2023-04-25T17:59:03;4.95;;;1.42;;
14933;SDS011;7560;51.364;12.384;2023-04-25T18:04:05;3.33;;;1.15;;
14933;SDS011;7560;51.364;12.384;2023-04-25T18:09:06;4.45;;;1.20;;
14933;SDS011;7560;51.364;12.384;2023-04-25T18:14:18;3.97;;;1.38;;
14933;SDS011;7560;51.364;12.384;2023-04-25T18:19:21;2.20;;;1.13;;
14933;SDS011;7560;51.364;12.384;2023-04-25T18:24:23;4.80;;;1.67;;
14933;SDS011;7560;51.364;12.384;2023-04-25T18:29:28;3.03;;;1.60;;
14933;SDS011;7560;51.364;12.384;2023-04-25T18:34:34;5.40;;;1.70;;
14933;SDS011;7560;51.364;12.384;2023-04-25T18:39:43;4.20;;;1.70;;
14933;SDS011;7560;51.364;12.384;2023-04-25T18:44:44;3.03;;;1.50;;
14933;SDS011;7560;51.364;12.384;2023-04-25T18:49:47;2.50;;;1.33;;
14933;SDS011;7560;51.364;12.384;2023-04-25T18:54:50;3.65;;;1.27;;
14933;SDS011;7560;51.364;12.384;2023-04-25T18:59:52;3.15;;;1.35;;
14933;SDS011;7560;51.364;12.384;2023-04-25T19:04:54;3.42;;;1.30;;
14933;SDS011;7560;51.364;12.384;2023-04-25T19:09:57;3.00;;;1.10;;
14933;SDS011;7560;51.364;12.384;2023-04-25T19:14:59;2.17;;;1.13;;
14933;SDS011;7560;51.364;12.384;2023-04-25T19:20:02;3.17;;;1.27;;
14933;SDS011;7560;51.364;12.384;2023-04-25T19:25:04;1.92;;;1.35;;
14933;SDS011;7560;51.364;12.384;2023-04-25T19:30:11;4.60;;;1.20;;
14933;SDS011;7560;51.364;12.384;2023-04-25T19:35:13;1.48;;;1.10;;
14933;SDS011;7560;51.364;12.384;2023-04-25T19:40:15;4.57;;;1.48;;
14933;SDS011;7560;51.364;12.384;2023-04-25T19:45:18;4.55;;;1.63;;
14933;SDS011;7560;51.364;12.384;2023-04-25T19:50:21;4.00;;;1.30;;
14933;SDS011;7560;51.364;12.384;2023-04-25T19:55:23;3.75;;;2.00;;
14933;SDS011;7560;51.364;12.384;2023-04-25T20:00:26;2.35;;;1.60;;
14933;SDS011;7560;51.364;12.384;2023-04-25T20:05:29;2.45;;;1.85;;
14933;SDS011;7560;51.364;12.384;2023-04-25T20:10:32;3.35;;;1.60;;
14933;SDS011;7560;51.364;12.384;2023-04-25T20:15:34;2.10;;;1.63;;
14933;SDS011;7560;51.364;12.384;2023-04-25T20:20:35;4.32;;;1.70;;
14933;SDS011;7560;51.364;12.384;2023-04-25T20:25:37;2.10;;;1.52;;
14933;SDS011;7560;51.364;12.384;2023-04-25T20:30:39;2.47;;;1.60;;
14933;SDS011;7560;51.364;12.384;2023-04-25T20:35:41;2.25;;;1.70;;
14933;SDS011;7560;51.364;12.384;2023-04-25T20:40:44;3.75;;;2.00;;
14933;SDS011;7560;51.364;12.384;2023-04-25T20:45:46;3.92;;;1.85;;
14933;SDS011;7560;51.364;12.384;2023-04-25T20:50:47;3.78;;;2.05;;
14933;SDS011;7560;51.364;12.384;2023-04-25T20:55:49;4.25;;;1.88;;
14933;SDS011;7560;51.364;12.384;2023-04-25T21:00:52;3.08;;;1.58;;
14933;SDS011;7560;51.364;12.384;2023-04-25T21:05:56;3.95;;;1.83;;
14933;SDS011;7560;51.364;12.384;2023-04-25T21:10:58;3.03;;;1.65;;
14933;SDS011;7560;51.364;12.384;2023-04-25T21:16:00;2.97;;;1.88;;
14933;SDS011;7560;51.364;12.384;2023-04-25T21:21:03;4.65;;;2.03;;
14933;SDS011;7560;51.364;12.384;2023-04-25T21:26:05;2.88;;;1.92;;
14933;SDS011;7560;51.364;12.384;2023-04-25T21:31:07;2.55;;;1.80;;
14933;SDS011;7560;51.364;12.384;2023-04-25T21:36:09;3.10;;;1.95;;
14933;SDS011;7560;51.364;12.384;2023-04-25T21:41:11;2.55;;;1.70;;
14933;SDS011;7560;51.364;12.384;2023-04-25T21:46:12;3.00;;;1.80;;
14933;SDS011;7560;51.364;12.384;2023-04-25T21:51:23;5.55;;;1.88;;
14933;SDS011;7560;51.364;12.384;2023-04-25T21:56:25;5.60;;;2.15;;
14933;SDS011;7560;51.364;12.384;2023-04-25T22:01:27;5.10;;;2.15;;
14933;SDS011;7560;51.364;12.384;2023-04-25T22:06:29;4.15;;;2.20;;
14933;SDS011;7560;51.364;12.384;2023-04-25T22:11:31;4.38;;;2.20;;
14933;SDS011;7560;51.364;12.384;2023-04-25T22:16:33;3.53;;;2.10;;
14933;SDS011;7560;51.364;12.384;2023-04-25T22:21:35;3.97;;;2.05;;
14933;SDS011;7560;51.364;12.384;2023-04-25T22:26:37;5.05;;;2.22;;
14933;SDS011;7560;51.364;12.384;2023-04-25T22:31:39;4.00;;;2.03;;
14933;SDS011;7560;51.364;12.384;2023-04-25T22:36:42;6.63;;;2.40;;
14933;SDS011;7560;51.364;12.384;2023-04-25T22:41:44;4.78;;;2.22;;
14933;SDS011;7560;51.364;12.384;2023-04-25T22:46:47;4.93;;;2.42;;
14933;SDS011;7560;51.364;12.384;2023-04-25T22:51:50;4.72;;;2.42;;
14933;SDS011;7560;51.364;12.384;2023-04-25T22:56:55;4.13;;;2.20;;
14933;SDS011;7560;51.364;12.384;2023-04-25T23:01:58;3.15;;;2.00;;
14933;SDS011;7560;51.364;12.384;2023-04-25T23:07:00;4.72;;;2.13;;
14933;SDS011;7560;51.364;12.384;2023-04-25T23:12:02;5.43;;;2.50;;
14933;SDS011;7560;51.364;12.384;2023-04-25T23:17:04;3.40;;;2.40;;
14933;SDS011;7560;51.364;12.384;2023-04-25T23:22:06;5.57;;;2.53;;
14933;SDS011;7560;51.364;12.384;2023-04-25T23:27:09;3.67;;;1.90;;
14933;SDS011;7560;51.364;12.384;2023-04-25T23:32:10;6.38;;;2.40;;
14933;SDS011;7560;51.364;12.384;2023-04-25T23:37:13;3.67;;;2.03;;
14933;SDS011;7560;51.364;12.384;2023-04-25T23:42:15;3.92;;;2.25;;
14933;SDS011;7560;51.364;12.384;2023-04-25T23:47:19;5.10;;;2.35;;
14933;SDS011;7560;51.364;12.384;2023-04-25T23:52:21;4.75;;;2.33;;
14933;SDS011;7560;51.364;12.384;2023-04-25T23:57:23;3.80;;;2.03;;
